Time;durP1;ratioP1;P1;durP2;ratioP2;P2;SDS_P1;SDS_P2;PMS_P1;PMS_P2;Temp;Humidity;BMP_temperature;BMP_pressure;BME280_temperature;BME280_humidity;BME280_pressure;Samples;Min_cycle;Max_cycle;Signal;HPM_P1;HPM_P2
2023/01/14 00:00:22;;;;;;;6.23;4.47;;;;;;;6.66;95.42;100155.63;5015568;28;20787;-77
2023/01/14 00:02:48;;;;;;;8.93;4.17;;;;;;;6.61;96.10;100157.44;5009493;28;20245;-76
2023/01/14 00:05:16;;;;;;;8.73;4.50;;;;;;;6.64;94.86;100170.34;5009243;28;20744;-77
2023/01/14 00:07:42;;;;;;;4.73;2.67;;;;;;;6.74;94.47;100182.41;5009456;28;20758;-77
2023/01/14 00:10:10;;;;;;;3.77;2.77;;;;;;;6.74;94.15;100206.59;5009038;28;20724;-77
2023/01/14 00:12:37;;;;;;;5.17;2.77;;;;;;;6.69;93.26;100217.88;5037881;28;20271;-74
2023/01/14 00:15:03;;;;;;;3.50;2.10;;;;;;;6.70;93.27;100222.19;5049172;28;20206;-77
2023/01/14 00:17:30;;;;;;;4.57;2.50;;;;;;;6.75;93.27;100223.03;5048915;28;20216;-77
2023/01/14 00:19:56;;;;;;;4.20;2.03;;;;;;;6.83;93.72;100222.97;5048209;28;20797;-77
2023/01/14 00:22:24;;;;;;;3.57;2.03;;;;;;;6.81;92.68;100233.34;5048401;28;20212;-77
2023/01/14 00:24:50;;;;;;;2.20;1.30;;;;;;;6.93;91.98;100241.03;5048399;28;20229;-77
2023/01/14 00:27:16;;;;;;;3.10;1.73;;;;;;;6.99;91.10;100268.69;5048193;28;20294;-77
2023/01/14 00:29:43;;;;;;;4.00;1.60;;;;;;;7.00;90.74;100288.59;5043442;28;20287;-77
2023/01/14 00:32:10;;;;;;;4.83;2.40;;;;;;;6.94;90.31;100304.19;5032488;28;20229;-78
2023/01/14 00:34:37;;;;;;;4.63;2.27;;;;;;;6.90;90.51;100316.31;5033023;28;20263;-78
2023/01/14 00:37:03;;;;;;;5.03;2.80;;;;;;;6.94;90.02;100331.00;5033466;28;20311;-78
2023/01/14 00:39:31;;;;;;;5.17;3.10;;;;;;;7.02;89.29;100343.94;5032611;28;20291;-78
2023/01/14 00:41:57;;;;;;;4.57;2.47;;;;;;;7.00;88.40;100384.59;5038883;28;20623;-78
2023/01/14 00:44:24;;;;;;;3.57;2.30;;;;;;;7.00;87.43;100399.28;5046885;28;20227;-78
2023/01/14 00:46:52;;;;;;;2.20;2.00;;;;;;;6.99;88.13;100392.41;5052412;28;20213;-78
2023/01/14 00:49:20;;;;;;;6.00;2.20;;;;;;;7.02;87.83;100403.63;5053150;28;20231;-77
2023/01/14 00:51:46;;;;;;;4.13;2.20;;;;;;;7.01;87.80;100407.06;5052267;28;20676;-78
2023/01/14 00:54:13;;;;;;;6.60;2.50;;;;;;;7.04;87.50;100416.59;5052838;28;20684;-76
2023/01/14 00:56:41;;;;;;;3.90;2.20;;;;;;;6.94;87.29;100410.59;5052624;28;20205;-78
2023/01/14 00:59:10;;;;;;;4.20;2.37;;;;;;;7.00;87.58;100426.13;5052724;28;20238;-77
2023/01/14 01:01:36;;;;;;;7.63;2.60;;;;;;;6.98;87.20;100433.06;5052316;28;20216;-78
2023/01/14 01:04:03;;;;;;;5.37;2.13;;;;;;;6.93;86.42;100461.59;5053691;28;20222;-78
2023/01/14 01:06:30;;;;;;;5.33;2.07;;;;;;;6.97;85.52;100483.22;5052510;28;20273;-78
2023/01/14 01:08:58;;;;;;;4.70;2.50;;;;;;;6.95;86.59;100474.59;5052314;28;20212;-78
2023/01/14 01:11:25;;;;;;;4.43;2.33;;;;;;;7.08;87.31;100459.84;5050117;28;20214;-78
2023/01/14 01:13:54;;;;;;;5.50;2.23;;;;;;;7.03;86.69;100467.63;5045048;28;20208;-78
2023/01/14 01:16:23;;;;;;;3.23;1.90;;;;;;;7.07;85.84;100468.47;5052955;28;20675;-78
2023/01/14 01:18:51;;;;;;;5.63;3.20;;;;;;;7.01;86.04;100476.28;5052703;28;20659;-78
2023/01/14 01:21:19;;;;;;;5.37;2.60;;;;;;;6.97;85.96;100478.88;5051991;28;20324;-78
2023/01/14 01:23:46;;;;;;;6.57;3.23;;;;;;;6.89;85.45;100487.56;5051957;28;20689;-78
2023/01/14 01:26:15;;;;;;;3.20;2.03;;;;;;;6.97;85.66;100491.00;5052931;28;20204;-78
2023/01/14 01:28:42;;;;;;;3.03;2.30;;;;;;;6.89;85.81;100492.75;5052908;28;20213;-78
2023/01/14 01:31:12;;;;;;;3.60;2.00;;;;;;;7.00;86.84;100488.41;5052107;28;20792;-78
2023/01/14 01:33:39;;;;;;;2.90;1.57;;;;;;;7.00;85.98;100488.41;5052516;28;20254;-78
2023/01/14 01:36:07;;;;;;;2.90;1.70;;;;;;;6.93;86.75;100476.31;5053095;28;20201;-78
2023/01/14 01:38:34;;;;;;;4.33;2.00;;;;;;;6.95;86.23;100478.03;5056053;28;20676;-77
2023/01/14 01:41:01;;;;;;;6.47;2.17;;;;;;;7.06;86.69;100477.16;5053547;28;20863;-78
2023/01/14 01:43:30;;;;;;;5.60;2.43;;;;;;;7.01;86.30;100465.91;5047349;28;20264;-78
2023/01/14 01:45:57;;;;;;;4.97;2.13;;;;;;;6.97;87.41;100472.84;5056593;28;20232;-78
2023/01/14 01:48:27;;;;;;;2.90;2.17;;;;;;;6.92;87.54;100449.50;5056544;28;20212;-78
2023/01/14 01:50:58;;;;;;;3.30;1.60;;;;;;;6.87;87.29;100450.41;5056254;28;20228;-78
2023/01/14 01:53:25;;;;;;;5.83;1.93;;;;;;;6.82;86.58;100462.50;5055477;28;20216;-78
2023/01/14 01:55:55;;;;;;;4.37;2.20;;;;;;;6.81;87.04;100468.59;5055673;28;20231;-78
2023/01/14 01:58:22;;;;;;;5.53;2.47;;;;;;;6.84;87.14;100460.78;5056365;28;20267;-77
2023/01/14 02:00:49;;;;;;;7.63;2.60;;;;;;;6.85;87.07;100449.53;5055719;28;20298;-78
2023/01/14 02:03:21;;;;;;;6.53;2.07;;;;;;;6.87;87.12;100471.16;5056325;28;20271;-78
2023/01/14 02:05:50;;;;;;;8.00;2.27;;;;;;;6.87;86.76;100471.16;5056231;28;20237;-78
2023/01/14 02:08:17;;;;;;;4.60;2.03;;;;;;;6.90;88.27;100456.44;5055440;28;20582;-77
2023/01/14 02:11:02;;;;;;;4.13;2.17;;;;;;;6.90;87.65;100450.41;5053206;28;20289;-77
2023/01/14 02:13:40;;;;;;;7.37;2.37;;;;;;;7.03;87.36;100462.44;5046940;28;20205;-78
2023/01/14 02:16:15;;;;;;;7.53;1.73;;;;;;;7.04;87.66;100481.50;5056148;28;20207;-78
2023/01/14 02:18:51;;;;;;;4.23;1.37;;;;;;;6.98;87.10;100482.38;5055421;28;20207;-78
2023/01/14 02:21:22;;;;;;;4.83;2.50;;;;;;;6.93;87.14;100497.94;5054977;28;20231;-77
2023/01/14 02:24:30;;;;;;;3.53;1.87;;;;;;;6.98;86.68;100503.13;5055256;28;20261;-77
2023/01/14 02:27:21;;;;;;;5.83;2.00;;;;;;;6.96;87.15;100497.94;5055512;28;20204;-79
2023/01/14 02:30:05;;;;;;;3.73;1.97;;;;;;;6.92;87.13;100485.84;5055609;28;20660;-78
2023/01/14 02:32:38;;;;;;;3.60;2.20;;;;;;;6.96;86.97;100497.09;5055560;28;20216;-78
2023/01/14 02:35:15;;;;;;;7.40;2.70;;;;;;;6.90;87.92;100494.50;5055642;28;20209;-79
2023/01/14 02:37:50;;;;;;;3.87;2.20;;;;;;;6.89;88.49;100464.22;5054949;28;20201;-78
2023/01/14 02:40:25;;;;;;;6.07;2.00;;;;;;;6.94;88.08;100470.28;5054298;28;20754;-78
2023/01/14 02:45:47;;;;;;;3.13;1.67;;;;;;;7.11;88.13;100450.28;5055240;28;20240;-78
2023/01/14 02:48:15;;;;;;;5.17;1.90;;;;;;;7.10;87.45;100474.53;5055037;28;20258;-78
2023/01/14 02:50:42;;;;;;;3.83;2.30;;;;;;;7.09;87.24;100471.94;5055162;28;20299;-78
2023/01/14 02:53:10;;;;;;;4.27;1.93;;;;;;;7.20;87.25;100479.69;5054851;28;20204;-78
2023/01/14 02:55:38;;;;;;;3.63;1.67;;;;;;;7.21;86.69;100494.38;5055740;28;20335;-78
2023/01/14 02:58:43;;;;;;;4.30;1.60;;;;;;;7.11;86.15;100522.97;5055337;28;20208;-78
2023/01/14 03:01:25;;;;;;;4.73;1.87;;;;;;;7.05;86.93;100512.59;5049130;28;20605;-78
2023/01/14 03:04:10;;;;;;;5.20;1.67;;;;;;;7.01;86.64;100502.25;5055647;28;20257;-78
2023/01/14 03:06:50;;;;;;;3.77;1.90;;;;;;;6.90;86.51;100503.16;5054870;28;20601;-78
2023/01/14 03:09:25;;;;;;;5.93;2.30;;;;;;;6.85;87.01;100491.06;5054603;28;20212;-78
2023/01/14 03:11:56;;;;;;;3.87;2.43;;;;;;;6.78;87.84;100476.34;5048876;28;20206;-78
2023/01/14 03:14:27;;;;;;;4.50;2.27;;;;;;;6.97;87.47;100468.50;5050649;28;20204;-78
2023/01/14 03:17:03;;;;;;;6.53;2.93;;;;;;;6.87;86.81;100487.56;5055007;28;20216;-78
2023/01/14 03:19:34;;;;;;;7.47;3.43;;;;;;;6.89;87.12;100485.84;5054611;28;20225;-78
2023/01/14 03:22:03;;;;;;;8.20;3.63;;;;;;;7.05;87.60;100470.22;5054051;28;20301;-77
2023/01/14 03:24:33;;;;;;;6.47;3.00;;;;;;;6.98;86.89;100479.78;5054957;28;20212;-78
2023/01/14 03:27:05;;;;;;;7.30;3.43;;;;;;;7.12;86.40;100483.16;5054082;28;20213;-78
2023/01/14 03:29:37;;;;;;;6.60;4.10;;;;;;;7.12;86.65;100488.38;5053937;28;20229;-77
2023/01/14 03:32:08;;;;;;;10.03;4.50;;;;;;;7.10;86.66;100482.31;5054169;28;20212;-78
2023/01/14 03:34:38;;;;;;;7.80;3.57;;;;;;;7.16;86.79;100486.63;5054076;28;20217;-78
2023/01/14 03:37:08;;;;;;;8.63;4.43;;;;;;;7.22;86.30;100478.81;5055519;28;20239;-78
2023/01/14 03:39:35;;;;;;;6.90;3.90;;;;;;;7.15;86.32;100485.78;5054598;28;20290;-79
2023/01/14 03:42:21;;;;;;;9.40;3.83;;;;;;;7.18;87.21;100481.44;5046966;28;20202;-76
2023/01/14 03:44:58;;;;;;;11.10;4.60;;;;;;;7.10;86.67;100490.09;5053552;28;20240;-78
2023/01/14 03:47:27;;;;;;;7.27;3.60;;;;;;;7.11;86.78;100480.56;5054766;28;20205;-78
2023/01/14 03:49:55;;;;;;;11.03;3.93;;;;;;;7.16;86.36;100482.28;5054097;28;20224;-79
2023/01/14 03:52:34;;;;;;;6.93;3.73;;;;;;;7.18;85.90;100495.25;5054502;28;20582;-78
2023/01/14 03:55:04;;;;;;;10.53;4.20;;;;;;;7.08;85.97;100485.78;5054875;28;20204;-78
2023/01/14 03:57:38;;;;;;;11.87;4.97;;;;;;;6.83;86.53;100500.56;5054191;28;20205;-78
2023/01/14 04:00:10;;;;;;;11.93;5.13;;;;;;;6.93;86.72;100479.78;5052610;28;20303;-76
2023/01/14 04:02:39;;;;;;;8.60;4.70;;;;;;;6.92;87.15;100480.66;5054421;28;20201;-78
2023/01/14 04:05:06;;;;;;;8.53;4.57;;;;;;;6.76;87.29;100464.28;5054369;28;20277;-77
2023/01/14 04:07:33;;;;;;;10.10;4.93;;;;;;;6.83;87.42;100464.25;5053732;28;20213;-78
2023/01/14 04:09:59;;;;;;;10.07;4.90;;;;;;;6.88;86.75;100465.09;5053763;28;20363;-79
2023/01/14 04:12:25;;;;;;;11.73;5.23;;;;;;;6.89;86.75;100467.69;5043484;28;20213;-78
2023/01/14 04:17:37;;;;;;;9.70;5.70;;;;;;;6.91;87.28;100468.53;5053815;28;20208;-79
2023/01/14 04:20:06;;;;;;;10.63;4.50;;;;;;;7.02;86.88;100459.88;5053766;28;20252;-78
2023/01/14 04:22:32;;;;;;;10.10;4.73;;;;;;;6.89;87.17;100462.47;5053430;28;20209;-78
2023/01/14 04:24:59;;;;;;;7.97;4.60;;;;;;;7.03;87.77;100456.38;5053734;28;20229;-78
2023/01/14 04:27:26;;;;;;;8.80;3.93;;;;;;;7.09;87.09;100457.22;5054322;28;20217;-78
2023/01/14 04:29:52;;;;;;;15.43;5.80;;;;;;;6.88;86.92;100475.50;5053799;28;20225;-78
2023/01/14 04:32:18;;;;;;;8.53;4.33;;;;;;;6.94;87.16;100465.94;5053714;28;20228;-78
2023/01/14 04:34:46;;;;;;;11.90;4.37;;;;;;;7.03;87.33;100458.97;5054233;28;20202;-78
2023/01/14 04:37:12;;;;;;;12.47;4.60;;;;;;;6.93;86.73;100458.16;5054863;28;20259;-78
2023/01/14 04:39:39;;;;;;;8.03;3.80;;;;;;;7.02;87.18;100452.09;5053107;28;20233;-77
2023/01/14 04:44:49;;;;;;;5.33;3.83;;;;;;;7.03;86.22;100490.13;5052565;28;20273;-78
2023/01/14 04:47:16;;;;;;;11.97;4.30;;;;;;;7.00;85.58;100492.72;5053509;28;20248;-78
2023/01/14 04:49:43;;;;;;;11.73;4.00;;;;;;;7.12;86.01;100482.31;5053039;28;20228;-78
2023/01/14 04:52:10;;;;;;;9.20;3.90;;;;;;;7.19;86.05;100486.59;5052777;28;20205;-78
2023/01/14 04:54:37;;;;;;;11.47;3.93;;;;;;;7.25;86.10;100485.72;5053651;28;20212;-77
2023/01/14 04:57:03;;;;;;;11.13;4.37;;;;;;;7.28;85.95;100509.06;5053733;28;20664;-78
2023/01/14 04:59:29;;;;;;;11.37;3.40;;;;;;;7.16;85.50;100516.03;5053416;28;20235;-78
2023/01/14 05:01:56;;;;;;;11.83;3.37;;;;;;;7.17;85.54;100519.47;5052852;28;20197;-77
2023/01/14 05:04:22;;;;;;;10.50;3.70;;;;;;;7.17;85.15;100532.47;5053090;28;20741;-77
2023/01/14 05:06:49;;;;;;;12.27;3.87;;;;;;;7.28;85.73;100535.03;5053563;28;20279;-78
2023/01/14 05:09:16;;;;;;;8.77;4.57;;;;;;;7.26;84.60;100529.00;5053053;28;20254;-78
2023/01/14 05:11:43;;;;;;;11.73;3.63;;;;;;;7.21;84.10;100538.50;5049825;28;20671;-78
2023/01/14 05:14:09;;;;;;;18.50;5.53;;;;;;;7.29;84.61;100553.19;5051257;28;20202;-78
2023/01/14 05:16:35;;;;;;;7.23;3.30;;;;;;;7.29;84.73;100552.31;5057479;28;20249;-77
2023/01/14 05:19:02;;;;;;;13.30;3.47;;;;;;;7.27;84.58;100561.84;5057111;28;20205;-78
2023/01/14 05:21:28;;;;;;;13.83;3.37;;;;;;;7.19;84.85;100564.47;5056913;28;20225;-78
2023/01/14 05:23:55;;;;;;;12.83;3.73;;;;;;;7.19;85.21;100553.22;5056775;28;20231;-78
2023/01/14 05:26:22;;;;;;;7.97;3.43;;;;;;;7.28;84.41;100555.81;5057218;28;20221;-78
2023/01/14 05:28:49;;;;;;;7.57;3.17;;;;;;;7.31;84.37;100561.84;5057577;28;20201;-78
2023/01/14 05:31:15;;;;;;;9.70;4.53;;;;;;;7.34;84.48;100553.19;5056653;28;20229;-78
2023/01/14 05:33:41;;;;;;;10.17;4.00;;;;;;;7.35;84.98;100545.41;5056798;28;20683;-78
2023/01/14 05:36:08;;;;;;;11.37;3.40;;;;;;;7.15;84.44;100544.59;5056979;28;20259;-78
2023/01/14 05:38:34;;;;;;;10.83;3.50;;;;;;;7.27;84.76;100538.50;5056872;28;20209;-78
2023/01/14 05:41:01;;;;;;;8.20;3.30;;;;;;;7.35;84.72;100529.81;5054034;28;20274;-78
2023/01/14 05:46:15;;;;;;;12.07;3.43;;;;;;;7.29;83.44;100549.72;5056774;28;20224;-78
2023/01/14 05:48:42;;;;;;;10.10;4.00;;;;;;;7.36;83.91;100554.03;5056748;28;20209;-78
2023/01/14 05:51:12;;;;;;;11.13;3.80;;;;;;;7.16;83.22;100567.94;5056251;28;20228;-78
2023/01/14 05:53:38;;;;;;;13.47;3.20;;;;;;;7.22;83.69;100551.50;5056229;28;20559;-77
2023/01/14 05:56:06;;;;;;;14.17;3.50;;;;;;;7.18;83.37;100544.59;5056202;28;20737;-78
2023/01/14 05:58:34;;;;;;;8.97;3.30;;;;;;;7.06;83.21;100557.63;5057074;28;20266;-78
2023/01/14 06:06:33;;;;;;;14.30;3.17;;;;;;;7.16;83.20;100535.94;5056596;28;20224;-78
2023/01/14 06:09:02;;;;;;;8.77;3.90;;;;;;;7.26;83.84;100541.97;5056575;28;20267;-78
2023/01/14 06:11:32;;;;;;;8.27;3.63;;;;;;;7.27;83.35;100541.94;5053802;28;20229;-77
2023/01/14 06:14:01;;;;;;;9.47;2.70;;;;;;;7.37;83.11;100553.16;5041501;28;20255;-78
2023/01/14 06:16:30;;;;;;;8.60;3.23;;;;;;;7.39;82.49;100560.94;5056431;28;20201;-78
2023/01/14 06:18:57;;;;;;;10.80;3.13;;;;;;;7.27;82.13;100567.91;5055900;28;20591;-78
2023/01/14 06:21:26;;;;;;;9.93;3.23;;;;;;;7.32;83.23;100555.78;5055654;28;20221;-78
2023/01/14 06:23:53;;;;;;;11.00;2.83;;;;;;;7.31;82.67;100543.69;5054714;28;20725;-77
2023/01/14 06:26:21;;;;;;;7.60;2.63;;;;;;;7.32;82.18;100566.16;5055917;28;20228;-78
2023/01/14 06:28:47;;;;;;;7.70;2.83;;;;;;;7.38;81.64;100578.28;5056115;28;20249;-78
2023/01/14 06:31:17;;;;;;;8.33;3.10;;;;;;;7.43;81.83;100571.31;5055671;28;20224;-78
2023/01/14 06:33:50;;;;;;;7.83;3.03;;;;;;;7.43;80.80;100580.84;5056529;28;20201;-78
2023/01/14 06:36:16;;;;;;;6.23;2.17;;;;;;;7.15;81.52;100599.97;5056066;28;20197;-78
2023/01/14 06:38:43;;;;;;;7.77;2.63;;;;;;;7.17;81.10;100592.16;5055455;28;20565;-78
2023/01/14 06:41:11;;;;;;;14.70;2.87;;;;;;;7.18;81.81;100595.66;5053116;28;20266;-78
2023/01/14 06:43:40;;;;;;;8.00;2.20;;;;;;;7.16;81.46;100583.53;5046741;28;20197;-78
2023/01/14 06:46:06;;;;;;;8.77;2.13;;;;;;;7.11;81.35;100592.19;5056090;28;20319;-79
2023/01/14 06:48:34;;;;;;;14.10;2.53;;;;;;;7.05;80.69;100590.47;5056067;28;20201;-76
2023/01/14 06:51:04;;;;;;;8.80;2.33;;;;;;;7.12;80.39;100587.00;5055583;28;20853;-78
2023/01/14 06:53:30;;;;;;;9.07;2.57;;;;;;;7.20;80.29;100594.78;5055362;28;20734;-79
2023/01/14 06:56:01;;;;;;;11.67;2.97;;;;;;;7.23;80.31;100596.50;5055450;28;20667;-78
2023/01/14 06:58:27;;;;;;;13.57;3.63;;;;;;;7.24;79.73;100617.25;5055490;28;20733;-78
2023/01/14 07:00:54;;;;;;;9.40;2.30;;;;;;;7.24;79.24;100639.78;5055164;28;20225;-79
2023/01/14 07:03:21;;;;;;;11.67;2.97;;;;;;;7.14;80.02;100629.38;5055420;28;20194;-78
2023/01/14 07:05:49;;;;;;;8.50;1.93;;;;;;;7.15;80.22;100625.94;5055485;28;20918;-78
2023/01/14 07:08:15;;;;;;;9.03;3.47;;;;;;;7.19;79.35;100629.38;5055457;28;20204;-79
2023/01/14 07:10:42;;;;;;;10.87;3.17;;;;;;;7.18;80.04;100624.22;5052498;28;20233;-78
2023/01/14 07:13:08;;;;;;;8.23;1.87;;;;;;;7.16;79.30;100621.59;5047334;28;20197;-79
2023/01/14 07:15:34;;;;;;;10.77;2.10;;;;;;;7.16;78.62;100650.16;5055614;28;20204;-76
2023/01/14 07:18:01;;;;;;;9.53;2.37;;;;;;;7.22;79.06;100655.34;5054817;28;20204;-78
2023/01/14 07:20:27;;;;;;;17.23;3.33;;;;;;;7.27;79.04;100651.00;5055115;28;20228;-79
2023/01/14 07:22:54;;;;;;;8.03;1.93;;;;;;;7.34;78.80;100654.47;5055222;28;20220;-78
2023/01/14 07:25:21;;;;;;;7.10;2.00;;;;;;;7.35;78.50;100645.78;5055238;28;20205;-78
2023/01/14 07:27:48;;;;;;;7.23;2.60;;;;;;;7.39;78.19;100660.50;5055590;28;20235;-77
2023/01/14 07:30:14;;;;;;;8.30;2.33;;;;;;;7.39;77.75;100663.09;5055250;28;20279;-78
2023/01/14 07:32:40;;;;;;;6.27;2.20;;;;;;;7.30;77.71;100671.78;5054989;28;20204;-78
2023/01/14 07:35:07;;;;;;;17.83;3.07;;;;;;;7.34;77.16;100670.88;5054795;28;20201;-78
2023/01/14 07:37:34;;;;;;;8.57;2.40;;;;;;;7.35;76.71;100689.94;5055138;28;20200;-79
2023/01/14 07:40:01;;;;;;;9.57;2.43;;;;;;;7.41;76.85;100689.91;5054914;28;20229;-79
2023/01/14 07:42:28;;;;;;;7.47;2.50;;;;;;;7.36;76.24;100695.13;5044747;28;20703;-78
2023/01/14 07:44:54;;;;;;;4.77;2.17;;;;;;;7.40;76.31;100700.34;5015252;28;20612;-78
2023/01/14 07:47:20;;;;;;;6.93;1.60;;;;;;;7.36;76.80;100699.47;5015141;28;20724;-79
2023/01/14 07:49:47;;;;;;;9.30;3.13;;;;;;;7.30;75.00;100692.53;5015307;28;20229;-77
2023/01/14 07:52:13;;;;;;;7.47;2.37;;;;;;;7.36;75.31;100725.44;5016008;28;20206;-79
2023/01/14 07:54:40;;;;;;;18.40;2.70;;;;;;;7.42;75.76;100711.56;5015819;28;20213;-79
2023/01/14 07:57:09;;;;;;;7.00;1.90;;;;;;;7.30;75.03;100709.84;5015899;28;20537;-79
2023/01/14 07:59:36;;;;;;;9.10;1.93;;;;;;;7.25;74.87;100709.00;5015392;28;20315;-78
2023/01/14 08:02:02;;;;;;;9.20;2.30;;;;;;;7.15;74.70;100706.41;5015749;28;20328;-78
2023/01/14 08:04:29;;;;;;;7.43;1.90;;;;;;;7.25;75.41;100702.06;5015401;28;20210;-78
2023/01/14 08:06:58;;;;;;;5.70;2.00;;;;;;;7.26;76.32;100696.00;5015821;28;20226;-79
2023/01/14 08:09:24;;;;;;;6.83;1.97;;;;;;;7.30;76.16;100678.69;5015862;28;20203;-78
2023/01/14 08:11:51;;;;;;;9.10;1.80;;;;;;;7.25;76.39;100667.44;5036886;28;20247;-78
2023/01/14 08:14:19;;;;;;;7.00;1.93;;;;;;;7.13;77.04;100664.00;5050430;28;20575;-79
2023/01/14 08:16:45;;;;;;;9.87;2.47;;;;;;;7.23;77.02;100633.69;5055612;28;20227;-78
2023/01/14 08:19:12;;;;;;;7.30;2.33;;;;;;;7.16;77.89;100619.00;5055411;28;20258;-78
2023/01/14 08:21:38;;;;;;;6.83;1.80;;;;;;;7.17;77.88;100607.75;5055187;28;20205;-78
2023/01/14 08:24:05;;;;;;;5.87;2.00;;;;;;;7.20;77.99;100578.34;5046196;28;20197;-78
2023/01/14 08:26:32;;;;;;;5.17;1.90;;;;;;;7.08;78.37;100576.63;5024113;28;20280;-77
2023/01/14 08:28:58;;;;;;;5.63;1.90;;;;;;;7.08;78.83;100568.84;5022756;28;20194;-76
2023/01/14 08:31:26;;;;;;;7.10;1.83;;;;;;;7.06;78.06;100566.25;5023815;28;20214;-79
2023/01/14 08:33:53;;;;;;;4.67;2.07;;;;;;;7.02;78.92;100561.09;5024027;28;20194;-77
2023/01/14 08:36:19;;;;;;;5.70;1.83;;;;;;;7.06;79.08;100544.63;5024296;28;20217;-78
2023/01/14 08:38:48;;;;;;;6.40;1.77;;;;;;;6.93;79.38;100539.44;5025133;28;20265;-79
2023/01/14 08:41:16;;;;;;;5.47;1.70;;;;;;;7.06;79.15;100511.75;5034786;28;20250;-79
2023/01/14 08:43:43;;;;;;;4.17;1.77;;;;;;;7.06;79.00;100514.34;5046375;28;20193;-79
2023/01/14 08:46:11;;;;;;;5.63;1.80;;;;;;;7.10;78.77;100504.81;5053976;28;20262;-79
2023/01/14 08:48:38;;;;;;;6.47;1.70;;;;;;;7.15;78.73;100495.25;5054359;28;20716;-77
2023/01/14 08:51:07;;;;;;;10.77;2.50;;;;;;;7.19;78.49;100488.34;5032487;28;20753;-78
2023/01/14 08:53:35;;;;;;;7.60;2.00;;;;;;;7.12;79.04;100485.78;5023527;28;20735;-78
2023/01/14 08:56:03;;;;;;;9.20;2.33;;;;;;;7.15;79.15;100475.38;5019769;28;20201;-78
2023/01/14 08:58:30;;;;;;;5.93;1.93;;;;;;;7.04;78.90;100465.91;5021730;28;20696;-77
2023/01/14 09:00:57;;;;;;;3.90;1.50;;;;;;;6.90;78.63;100463.38;5033621;28;20222;-79
2023/01/14 09:03:25;;;;;;;7.13;2.83;;;;;;;6.96;79.90;100453.81;5033757;28;20254;-78
2023/01/14 09:05:56;;;;;;;9.10;2.33;;;;;;;6.90;79.18;100450.41;5032642;28;20208;-76
2023/01/14 09:19:33;;;;;;;9.10;1.70;;;;;;;6.70;80.69;100395.97;5052537;28;20254;-77
2023/01/14 09:22:01;;;;;;;8.60;1.83;;;;;;;6.90;82.57;100344.00;5053162;28;20266;-78
2023/01/14 09:24:27;;;;;;;6.63;1.80;;;;;;;7.06;82.79;100306.72;5053987;28;20255;-78
2023/01/14 09:26:54;;;;;;;5.13;1.80;;;;;;;7.23;83.08;100329.94;5053087;28;20221;-78
2023/01/14 09:29:21;;;;;;;8.10;1.83;;;;;;;7.21;81.16;100317.84;5052831;28;20212;-78
2023/01/14 09:31:47;;;;;;;7.67;2.13;;;;;;;7.43;83.37;100327.19;5052254;28;20278;-78
2023/01/14 09:34:13;;;;;;;7.77;1.80;;;;;;;7.50;82.01;100325.44;5052985;28;20208;-78
2023/01/14 09:36:40;;;;;;;9.23;2.63;;;;;;;7.54;81.97;100334.91;5053172;28;20624;-77
2023/01/14 09:39:07;;;;;;;10.60;1.77;;;;;;;7.58;81.25;100359.13;5052346;28;20741;-78
2023/01/14 09:41:37;;;;;;;7.00;2.50;;;;;;;7.48;78.20;100373.94;5049009;28;20208;-78
2023/01/14 09:44:07;;;;;;;12.87;2.00;;;;;;;7.55;78.81;100410.25;5045372;28;20247;-77
2023/01/14 09:46:33;;;;;;;4.87;1.60;;;;;;;7.40;77.37;100404.28;5052357;28;20745;-77
2023/01/14 09:49:02;;;;;;;5.97;1.50;;;;;;;7.59;80.48;100400.69;5051994;28;20255;-77
2023/01/14 09:51:44;;;;;;;3.97;1.57;;;;;;;7.44;76.98;100442.34;5051158;28;20712;-78
2023/01/14 09:54:19;;;;;;;8.73;2.53;;;;;;;7.53;79.60;100439.66;5050736;28;20951;-78
2023/01/14 09:56:52;;;;;;;10.43;2.10;;;;;;;7.66;80.00;100401.50;5051597;28;20209;-76
2023/01/14 09:59:26;;;;;;;7.60;1.63;;;;;;;7.63;77.49;100423.19;5055468;28;20306;-77
2023/01/14 10:02:00;;;;;;;5.97;2.50;;;;;;;7.36;75.93;100455.38;5055541;28;20204;-77
2023/01/14 10:04:50;;;;;;;7.73;2.23;;;;;;;7.42;77.31;100433.69;5055334;28;20213;-78
2023/01/14 10:07:19;;;;;;;5.53;1.53;;;;;;;7.41;77.92;100417.22;5055759;28;20271;-78
2023/01/14 10:09:52;;;;;;;7.07;1.70;;;;;;;7.45;77.97;100411.19;5055340;28;20885;-77
2023/01/14 10:12:22;;;;;;;9.73;1.97;;;;;;;7.50;78.23;100398.16;5046863;28;20202;-79
2023/01/14 10:14:57;;;;;;;8.70;1.90;;;;;;;7.28;77.71;100400.03;5054607;28;20208;-77
2023/01/14 10:17:29;;;;;;;6.63;1.90;;;;;;;7.43;78.13;100383.47;5055768;28;20197;-79
2023/01/14 10:19:55;;;;;;;12.83;2.17;;;;;;;7.34;78.55;100342.88;5055649;28;20228;-78
2023/01/14 10:22:35;;;;;;;6.20;1.70;;;;;;;7.34;80.44;100315.16;5056033;28;20331;-78
2023/01/14 10:25:05;;;;;;;9.57;2.30;;;;;;;7.49;79.65;100279.53;5056063;28;20204;-77
2023/01/14 10:27:31;;;;;;;5.10;1.43;;;;;;;7.45;79.93;100268.34;5056051;28;20236;-77
2023/01/14 10:30:16;;;;;;;7.10;1.87;;;;;;;7.68;83.58;100181.53;5056931;28;20776;-80
2023/01/14 10:32:42;;;;;;;7.23;2.13;;;;;;;7.62;79.91;100191.97;5057551;28;20630;-80
2023/01/14 10:35:13;;;;;;;4.33;1.50;;;;;;;7.50;79.71;100195.56;5057325;28;20249;-79
2023/01/14 10:37:40;;;;;;;6.43;1.57;;;;;;;7.56;79.90;100214.53;5056648;28;20452;-82
2023/01/14 10:40:18;;;;;;;8.13;2.53;;;;;;;7.68;80.88;100197.09;5056596;28;20290;-79
2023/01/14 10:42:45;;;;;;;4.93;1.67;;;;;;;7.74;81.23;100179.72;5044832;28;20204;-78
2023/01/14 10:45:12;;;;;;;6.93;1.70;;;;;;;7.54;81.17;100168.69;5056495;28;20205;-80
2023/01/14 10:47:40;;;;;;;7.93;2.17;;;;;;;7.25;82.01;100150.81;5057732;28;20236;-80
2023/01/14 10:50:18;;;;;;;6.00;1.90;;;;;;;7.12;84.47;100104.22;5058229;28;20279;-79
2023/01/14 10:52:44;;;;;;;7.63;2.20;;;;;;;7.19;85.30;100047.91;5058244;28;20763;-79
2023/01/14 10:55:16;;;;;;;4.90;1.80;;;;;;;7.29;85.74;100020.94;5057619;28;20293;-77
2023/01/14 10:57:48;;;;;;;5.93;1.73;;;;;;;7.24;85.91;99982.97;5058149;28;20208;-79
2023/01/14 11:00:32;;;;;;;4.80;1.63;;;;;;;7.40;86.41;99949.88;5056171;28;20715;-80
2023/01/14 11:03:00;;;;;;;7.37;1.97;;;;;;;7.14;87.15;99932.91;5057159;28;20208;-80
2023/01/14 11:05:29;;;;;;;8.13;1.97;;;;;;;7.01;88.52;99879.44;5057899;28;20288;-80
2023/01/14 11:07:58;;;;;;;6.27;2.07;;;;;;;7.12;89.48;99841.22;5057121;28;20251;-80
2023/01/14 11:10:28;;;;;;;6.50;1.70;;;;;;;7.27;90.13;99796.00;5054077;28;20735;-80
2023/01/14 11:13:14;;;;;;;4.93;1.77;;;;;;;7.24;91.15;99788.28;5037773;28;20202;-80
2023/01/14 11:15:45;;;;;;;5.97;2.07;;;;;;;7.29;89.99;99789.03;5037809;28;20213;-79
2023/01/14 11:18:28;;;;;;;5.60;2.27;;;;;;;7.35;90.37;99782.03;5036795;28;20691;-79
2023/01/14 11:21:04;;;;;;;4.60;1.70;;;;;;;7.25;89.66;99780.44;5036090;28;20283;-79
2023/01/14 11:23:33;;;;;;;4.13;2.17;;;;;;;7.24;90.79;99755.38;5036234;28;20216;-82
2023/01/14 11:26:07;;;;;;;5.57;1.70;;;;;;;7.25;90.39;99759.69;5036211;28;20213;-79
2023/01/14 11:28:36;;;;;;;5.40;2.27;;;;;;;7.17;91.58;99738.19;5034831;28;20282;-78
2023/01/14 11:31:02;;;;;;;4.63;2.00;;;;;;;7.22;91.84;99710.44;5034905;28;20253;-77
2023/01/14 11:33:32;;;;;;;5.43;1.80;;;;;;;7.30;92.60;99681.75;5034942;28;20828;-79
2023/01/14 11:35:59;;;;;;;6.57;2.30;;;;;;;7.22;91.79;99689.66;5034368;28;20587;-78
2023/01/14 11:38:26;;;;;;;7.77;2.90;;;;;;;7.33;92.30;99666.97;5036628;28;20202;-78
2023/01/14 11:43:53;;;;;;;4.20;1.50;;;;;;;7.24;92.65;99627.34;5053316;28;20734;-77
2023/01/14 11:46:20;;;;;;;7.87;2.40;;;;;;;7.20;92.51;99618.75;5056657;28;20288;-78
2023/01/14 11:49:00;;;;;;;3.23;1.70;;;;;;;7.30;92.93;99616.84;5057809;28;20225;-78
2023/01/14 11:51:27;;;;;;;4.53;2.10;;;;;;;7.38;92.81;99603.72;5057112;28;20236;-78
2023/01/14 11:53:56;;;;;;;5.60;1.80;;;;;;;7.20;91.25;99610.97;5054492;28;20212;-78
2023/01/14 11:56:28;;;;;;;4.30;2.00;;;;;;;7.45;93.55;99555.97;5054780;28;20208;-78
2023/01/14 11:58:56;;;;;;;6.80;1.97;;;;;;;7.41;93.29;99560.34;5054106;28;20213;-77
2023/01/14 12:01:27;;;;;;;5.50;2.27;;;;;;;7.50;93.06;99547.19;5054098;28;20737;-78
2023/01/14 12:04:00;;;;;;;8.77;2.23;;;;;;;7.42;91.88;99541.31;5054445;28;20567;-78
2023/01/14 12:06:32;;;;;;;6.13;2.80;;;;;;;7.48;91.77;99542.94;5055196;28;20205;-78
2023/01/14 12:09:02;;;;;;;8.27;3.23;;;;;;;7.58;92.45;99528.00;5054220;28;20279;-78
2023/01/14 12:11:35;;;;;;;6.43;2.10;;;;;;;7.41;91.41;99536.16;5051222;28;20229;-78